createdAt,value
2024-02-11T00:01:26.957Z,10.20
2024-02-11T00:03:56.258Z,10.21
2024-02-11T00:06:26.142Z,10.16
2024-02-11T00:08:54.598Z,10.20
2024-02-11T00:11:23.676Z,10.20
2024-02-11T00:13:52.295Z,10.19
2024-02-11T00:16:21.929Z,10.18
2024-02-11T00:18:50.581Z,10.18
2024-02-11T00:21:18.984Z,10.23
2024-02-11T00:23:48.798Z,10.25
2024-02-11T00:26:17.763Z,10.27
2024-02-11T00:28:46.240Z,10.27
2024-02-11T00:31:14.746Z,10.26
2024-02-11T00:33:43.305Z,10.26
2024-02-11T00:36:11.809Z,10.25
2024-02-11T00:38:40.803Z,10.27
2024-02-11T00:41:11.339Z,10.33
2024-02-11T00:43:39.849Z,10.33
2024-02-11T00:46:08.982Z,10.32
2024-02-11T00:48:37.735Z,10.31
2024-02-11T00:51:06.814Z,10.29
2024-02-11T00:53:35.216Z,10.31
2024-02-11T00:56:04.019Z,10.32
2024-02-11T00:58:34.362Z,10.32
2024-02-11T01:01:06.424Z,10.39
2024-02-11T01:03:36.271Z,10.35
2024-02-11T01:06:05.082Z,10.34
2024-02-11T01:08:33.792Z,10.38
2024-02-11T01:11:02.368Z,10.42
2024-02-11T01:13:31.889Z,10.44
2024-02-11T01:16:01.972Z,10.42
2024-02-11T01:18:30.447Z,10.42
2024-02-11T01:20:58.963Z,10.46
2024-02-11T01:23:27.560Z,10.51
2024-02-11T01:25:56.062Z,10.48
2024-02-11T01:28:24.558Z,10.51
2024-02-11T01:30:53.129Z,10.49
2024-02-11T01:33:24.050Z,10.50
2024-02-11T01:35:52.595Z,10.46
2024-02-11T01:38:21.126Z,10.43
2024-02-11T01:40:51.421Z,10.29
2024-02-11T01:43:19.796Z,10.21
2024-02-11T01:45:48.177Z,10.04
2024-02-11T01:48:18.007Z,9.84
2024-02-11T01:50:54.020Z,9.81
2024-02-11T01:53:23.945Z,9.74
2024-02-11T01:55:53.028Z,9.71
2024-02-11T01:58:22.739Z,9.67
2024-02-11T02:00:51.899Z,9.67
2024-02-11T02:03:23.303Z,9.55
2024-02-11T02:05:54.023Z,9.44
2024-02-11T02:08:22.906Z,9.37
2024-02-11T02:10:51.624Z,9.39
2024-02-11T02:13:20.109Z,9.43
2024-02-11T02:15:48.686Z,9.33
2024-02-11T02:18:17.211Z,9.30
2024-02-11T02:20:47.761Z,9.33
2024-02-11T02:23:18.515Z,9.32
2024-02-11T02:25:46.986Z,9.29
2024-02-11T02:28:15.343Z,9.17
2024-02-11T02:30:43.798Z,9.15
2024-02-11T02:33:12.244Z,9.20
2024-02-11T02:35:40.735Z,9.20
2024-02-11T02:38:09.343Z,8.98
2024-02-11T02:40:39.176Z,8.99
2024-02-11T02:43:12.121Z,8.94
2024-02-11T02:45:40.904Z,9.03
2024-02-11T02:48:10.052Z,9.09
2024-02-11T02:50:38.665Z,9.02
2024-02-11T02:53:08.412Z,9.06
2024-02-11T02:55:38.313Z,8.96
2024-02-11T02:58:12.896Z,8.94
2024-02-11T03:00:41.526Z,8.99
2024-02-11T03:03:10.130Z,8.92
2024-02-11T03:05:45.399Z,8.93
2024-02-11T03:08:14.906Z,8.94
2024-02-11T03:10:45.021Z,8.99
2024-02-11T03:13:13.821Z,9.02
2024-02-11T03:15:42.843Z,9.04
2024-02-11T03:18:11.504Z,8.93
2024-02-11T03:20:39.982Z,8.87
2024-02-11T03:23:08.440Z,8.85
2024-02-11T03:25:36.975Z,8.87
2024-02-11T03:28:07.761Z,8.82
2024-02-11T03:30:36.678Z,8.74
2024-02-11T03:33:05.532Z,8.67
2024-02-11T03:35:33.959Z,8.65
2024-02-11T03:38:02.999Z,8.67
2024-02-11T03:40:31.446Z,8.65
2024-02-11T03:42:59.741Z,8.68
2024-02-11T03:45:29.511Z,8.67
2024-02-11T03:47:57.951Z,8.60
2024-02-11T03:50:27.327Z,8.70
2024-02-11T03:52:57.617Z,8.62
2024-02-11T03:55:26.078Z,8.64
2024-02-11T03:57:55.244Z,8.49
2024-02-11T04:00:27.241Z,8.58
2024-02-11T04:02:58.938Z,8.57
2024-02-11T04:05:29.867Z,8.61
2024-02-11T04:07:58.653Z,8.57
2024-02-11T04:10:30.315Z,8.57
2024-02-11T04:13:00.190Z,8.63
2024-02-11T04:15:29.553Z,8.52
2024-02-11T04:18:09.386Z,8.50
2024-02-11T04:20:39.312Z,8.56
2024-02-11T04:23:09.891Z,8.55
2024-02-11T04:25:43.058Z,8.47
2024-02-11T04:28:12.332Z,8.51
2024-02-11T04:30:44.505Z,8.51
2024-02-11T04:33:22.100Z,8.49
2024-02-11T04:35:51.850Z,8.50
2024-02-11T04:38:20.383Z,8.40
2024-02-11T04:40:48.969Z,8.47
2024-02-11T04:43:19.008Z,8.47
2024-02-11T04:45:47.479Z,8.40
2024-02-11T04:48:22.728Z,8.39
2024-02-11T04:50:51.204Z,8.41
2024-02-11T04:53:21.438Z,8.33
2024-02-11T04:55:51.873Z,8.36
2024-02-11T04:58:21.605Z,8.37
2024-02-11T05:00:52.369Z,8.40
2024-02-11T05:03:22.686Z,8.40
2024-02-11T05:05:53.933Z,8.44
2024-02-11T05:08:25.237Z,8.40
2024-02-11T05:10:56.243Z,8.37
2024-02-11T05:13:31.195Z,8.39
2024-02-11T05:16:02.808Z,8.39
2024-02-11T05:18:34.292Z,8.37
2024-02-11T05:21:04.243Z,8.35
2024-02-11T05:23:32.942Z,8.38
2024-02-11T05:26:03.364Z,8.40
2024-02-11T05:28:35.608Z,8.42
2024-02-11T05:31:05.129Z,8.36
2024-02-11T05:33:37.416Z,8.37
2024-02-11T05:36:09.941Z,8.31
2024-02-11T05:38:41.194Z,8.34
2024-02-11T05:41:11.538Z,8.27
2024-02-11T05:43:40.593Z,8.30
2024-02-11T05:46:09.920Z,8.33
2024-02-11T05:48:39.911Z,8.21
2024-02-11T05:51:08.456Z,8.30
2024-02-11T05:53:37.642Z,8.32
2024-02-11T05:56:08.390Z,8.35
2024-02-11T05:58:37.081Z,8.35
2024-02-11T06:01:06.719Z,8.37
2024-02-11T06:03:37.535Z,8.37
2024-02-11T06:06:08.967Z,8.37
2024-02-11T06:08:40.822Z,8.34
2024-02-11T06:11:14.338Z,8.33
2024-02-11T06:13:42.868Z,8.38
2024-02-11T06:16:14.012Z,8.33
2024-02-11T06:18:43.190Z,8.24
2024-02-11T06:21:12.905Z,8.29
2024-02-11T06:23:42.884Z,8.28
2024-02-11T06:26:12.691Z,8.33
2024-02-11T06:28:41.296Z,8.35
2024-02-11T06:31:10.715Z,8.35
2024-02-11T06:33:39.612Z,8.42
2024-02-11T06:36:08.982Z,8.39
2024-02-11T06:38:42.598Z,8.39
2024-02-11T06:41:11.048Z,8.38
2024-02-11T06:43:41.321Z,8.41
2024-02-11T06:46:10.064Z,8.42
2024-02-11T06:48:40.311Z,8.49
2024-02-11T06:51:09.668Z,8.50
2024-02-11T06:53:39.617Z,8.52
2024-02-11T06:56:08.833Z,8.48
2024-02-11T06:58:42.607Z,8.48
2024-02-11T07:01:13.675Z,8.50
2024-02-11T07:03:42.492Z,8.43
2024-02-11T07:06:11.321Z,8.48
2024-02-11T07:08:41.561Z,8.53
2024-02-11T07:11:12.341Z,8.50
2024-02-11T07:13:41.368Z,8.47
2024-02-11T07:16:09.792Z,8.46
2024-02-11T07:18:40.025Z,8.49
2024-02-11T07:21:08.454Z,8.49
2024-02-11T07:23:36.932Z,8.46
2024-02-11T07:26:06.921Z,8.47
2024-02-11T07:28:35.607Z,8.47
2024-02-11T07:31:04.087Z,8.53
2024-02-11T07:33:32.579Z,8.52
2024-02-11T07:36:01.159Z,8.53
2024-02-11T07:38:29.597Z,8.54
2024-02-11T07:40:58.095Z,8.57
2024-02-11T07:43:28.337Z,8.55
2024-02-11T07:45:58.762Z,8.62
2024-02-11T07:48:27.650Z,8.54
2024-02-11T07:50:56.222Z,8.55
2024-02-11T07:53:24.856Z,8.57
2024-02-11T07:55:53.517Z,8.56
2024-02-11T07:58:21.991Z,8.53
2024-02-11T08:00:52.237Z,8.54
2024-02-11T08:03:24.605Z,8.55
2024-02-11T08:05:53.335Z,8.63
2024-02-11T08:08:22.049Z,8.63
2024-02-11T08:10:50.670Z,8.57
2024-02-11T08:13:19.097Z,8.61
2024-02-11T08:15:48.083Z,8.57
2024-02-11T08:18:18.810Z,8.46
2024-02-11T08:20:47.267Z,8.53
2024-02-11T08:23:15.764Z,8.52
2024-02-11T08:25:44.881Z,8.54
2024-02-11T08:28:13.317Z,8.53
2024-02-11T08:30:41.757Z,8.47
2024-02-11T08:33:11.013Z,8.52
2024-02-11T08:35:40.984Z,8.58
2024-02-11T08:38:09.799Z,8.59
2024-02-11T08:40:38.228Z,8.53
2024-02-11T08:43:06.929Z,8.59
2024-02-11T08:45:35.352Z,8.58
2024-02-11T08:48:03.806Z,8.61
2024-02-11T08:50:33.155Z,8.65
2024-02-11T08:53:03.197Z,8.67
2024-02-11T08:55:31.773Z,8.64
2024-02-11T08:58:01.382Z,8.67
2024-02-11T09:00:31.369Z,8.68
2024-02-11T09:02:59.911Z,8.66
2024-02-11T09:05:28.589Z,8.69
2024-02-11T09:07:57.399Z,8.68
2024-02-11T09:10:27.217Z,8.72
2024-02-11T09:12:56.145Z,8.72
2024-02-11T09:15:24.593Z,8.77
2024-02-11T09:17:53.063Z,8.79
2024-02-11T09:20:21.735Z,8.73
2024-02-11T09:22:50.278Z,8.78
2024-02-11T09:25:19.279Z,8.83
2024-02-11T09:27:49.098Z,8.78
2024-02-11T09:30:18.862Z,8.76
2024-02-11T09:32:49.943Z,8.74
2024-02-11T09:35:23.164Z,8.84
2024-02-11T09:37:53.873Z,8.92
2024-02-11T09:40:22.699Z,8.90
2024-02-11T09:42:54.627Z,8.95
2024-02-11T09:45:29.431Z,8.98
2024-02-11T09:48:01.740Z,8.93
2024-02-11T09:50:32.059Z,8.94
2024-02-11T09:53:00.556Z,9.00
2024-02-11T09:55:33.075Z,8.98
2024-02-11T09:58:02.838Z,8.95
2024-02-11T10:00:32.072Z,8.99
2024-02-11T10:03:05.536Z,9.03
2024-02-11T10:05:37.117Z,9.05
2024-02-11T10:08:17.143Z,9.07
2024-02-11T10:10:49.164Z,9.13
2024-02-11T10:13:21.335Z,9.04
2024-02-11T10:15:50.869Z,9.09
2024-02-11T10:18:19.987Z,9.04
2024-02-11T10:20:49.385Z,9.08
2024-02-11T10:23:19.753Z,9.11
2024-02-11T10:25:49.599Z,9.18
2024-02-11T10:28:19.838Z,9.21
2024-02-11T10:30:48.401Z,9.23
2024-02-11T10:33:17.754Z,9.21
2024-02-11T10:35:46.261Z,9.31
2024-02-11T10:38:14.703Z,9.39
2024-02-11T10:40:46.762Z,9.40
2024-02-11T10:43:16.693Z,9.41
2024-02-11T10:45:46.785Z,9.48
2024-02-11T10:48:15.371Z,9.48
2024-02-11T10:50:43.897Z,9.49
2024-02-11T10:53:18.644Z,9.58
2024-02-11T10:55:50.396Z,9.57
2024-02-11T10:58:25.942Z,9.51
2024-02-11T11:00:59.033Z,9.50
2024-02-11T11:03:30.588Z,9.42
2024-02-11T11:06:01.150Z,9.45
2024-02-11T11:08:31.362Z,9.45
2024-02-11T11:11:01.280Z,9.44
2024-02-11T11:13:33.503Z,9.51
2024-02-11T11:16:09.667Z,9.54
2024-02-11T11:18:38.890Z,9.52
2024-02-11T11:21:09.106Z,9.58
2024-02-11T11:23:41.025Z,9.59
2024-02-11T11:26:12.675Z,9.48
2024-02-11T11:28:42.342Z,9.52
2024-02-11T11:31:12.963Z,9.49
2024-02-11T11:33:42.005Z,9.43
2024-02-11T11:36:11.671Z,9.50
2024-02-11T11:38:40.309Z,9.59
2024-02-11T11:41:10.904Z,9.56
2024-02-11T11:43:39.706Z,9.51
2024-02-11T11:46:08.357Z,9.54
2024-02-11T11:48:38.630Z,9.60
2024-02-11T11:51:09.331Z,9.60
2024-02-11T11:53:38.148Z,9.63
2024-02-11T11:56:07.762Z,9.68
2024-02-11T11:58:36.413Z,9.69
2024-02-11T12:01:07.651Z,9.70
2024-02-11T12:03:38.554Z,9.75
2024-02-11T12:06:07.758Z,9.76
2024-02-11T12:08:38.688Z,9.69
2024-02-11T12:11:10.003Z,9.65
2024-02-11T12:13:41.146Z,9.47
2024-02-11T12:16:16.947Z,9.56
2024-02-11T12:18:48.021Z,9.59
2024-02-11T12:21:16.893Z,9.67
2024-02-11T12:23:45.645Z,9.71
2024-02-11T12:26:21.201Z,9.77
2024-02-11T12:28:53.405Z,9.87
2024-02-11T12:31:24.626Z,9.90
2024-02-11T12:33:54.958Z,9.92
2024-02-11T12:36:26.990Z,9.98
2024-02-11T12:38:57.576Z,9.83
2024-02-11T12:41:28.375Z,9.91
2024-02-11T12:43:58.407Z,9.90
2024-02-11T12:46:27.213Z,9.92
2024-02-11T12:48:59.995Z,9.94
2024-02-11T12:51:28.538Z,10.00
2024-02-11T12:53:56.972Z,9.96
2024-02-11T12:56:27.351Z,9.98
2024-02-11T12:58:56.075Z,9.91
2024-02-11T13:01:26.484Z,9.91
2024-02-11T13:03:56.708Z,9.94
2024-02-11T13:06:25.640Z,10.03
2024-02-11T13:08:54.130Z,10.09
2024-02-11T13:11:23.911Z,10.08
2024-02-11T13:13:54.445Z,10.09
2024-02-11T13:16:22.899Z,10.12
2024-02-11T13:18:52.907Z,9.99
2024-02-11T13:21:23.772Z,10.02
2024-02-11T13:23:52.379Z,10.06
2024-02-11T13:26:20.946Z,10.05
2024-02-11T13:28:49.664Z,10.04
2024-02-11T13:31:25.209Z,10.00
2024-02-11T13:33:56.024Z,10.00
2024-02-11T13:36:28.419Z,10.05
2024-02-11T13:38:56.994Z,10.10
2024-02-11T13:41:25.587Z,10.11
2024-02-11T13:43:54.139Z,10.01
2024-02-11T13:46:22.855Z,10.05
2024-02-11T13:48:52.377Z,10.09
2024-02-11T13:51:21.140Z,10.10
2024-02-11T13:53:51.192Z,10.09
2024-02-11T13:56:19.934Z,10.13
2024-02-11T13:58:48.584Z,10.13
2024-02-11T14:01:17.439Z,10.06
2024-02-11T14:03:48.261Z,10.06
2024-02-11T14:06:17.202Z,10.01
2024-02-11T14:08:47.577Z,10.04
2024-02-11T14:11:17.759Z,10.01
2024-02-11T14:13:46.459Z,9.98
2024-02-11T14:16:16.907Z,9.87
2024-02-11T14:18:47.998Z,9.87
2024-02-11T14:21:16.728Z,9.88
2024-02-11T14:23:49.314Z,9.81
2024-02-11T14:26:20.437Z,9.77
2024-02-11T14:28:50.596Z,9.70
2024-02-11T14:31:19.209Z,9.62
2024-02-11T14:33:47.731Z,9.66
2024-02-11T14:36:17.312Z,9.59
2024-02-11T14:38:46.705Z,9.51
2024-02-11T14:41:20.340Z,9.58
2024-02-11T14:43:50.667Z,9.61
2024-02-11T14:46:21.779Z,9.59
2024-02-11T14:48:51.220Z,9.52
2024-02-11T14:51:20.725Z,9.51
2024-02-11T14:53:49.286Z,9.59
2024-02-11T14:56:18.081Z,9.59
2024-02-11T14:58:46.620Z,9.67
2024-02-11T15:01:16.616Z,9.67
2024-02-11T15:03:46.087Z,9.68
2024-02-11T15:06:14.995Z,9.67
2024-02-11T15:08:45.238Z,9.60
2024-02-11T15:11:17.182Z,9.60
2024-02-11T15:13:47.188Z,9.56
2024-02-11T15:16:17.086Z,9.55
2024-02-11T15:18:47.506Z,9.57
2024-02-11T15:21:16.075Z,9.55
2024-02-11T15:23:44.632Z,9.49
2024-02-11T15:26:13.509Z,9.53
2024-02-11T15:28:41.988Z,9.54
2024-02-11T15:31:10.552Z,9.63
2024-02-11T15:33:40.413Z,9.63
2024-02-11T15:36:09.872Z,9.57
2024-02-11T15:38:40.368Z,9.60
2024-02-11T15:41:10.702Z,9.68
2024-02-11T15:43:39.517Z,9.64
2024-02-11T15:46:07.960Z,9.60
2024-02-11T15:48:38.187Z,9.61
2024-02-11T15:51:13.298Z,9.58
2024-02-11T15:53:42.130Z,9.58
2024-02-11T15:56:11.214Z,9.55
2024-02-11T15:58:40.027Z,9.55
2024-02-11T16:01:08.724Z,9.57
2024-02-11T16:03:38.099Z,9.54
2024-02-11T16:06:08.697Z,9.47
2024-02-11T16:08:38.054Z,9.44
2024-02-11T16:11:07.127Z,9.36
2024-02-11T16:13:35.830Z,9.32
2024-02-11T16:16:05.102Z,9.30
2024-02-11T16:18:33.680Z,9.26
2024-02-11T16:21:02.611Z,9.26
2024-02-11T16:23:32.484Z,9.26
2024-02-11T16:26:01.498Z,9.29
2024-02-11T16:28:29.970Z,9.29
2024-02-11T16:30:59.239Z,9.26
2024-02-11T16:33:34.544Z,9.21
2024-02-11T16:36:04.107Z,9.20
2024-02-11T16:38:34.333Z,9.23
2024-02-11T16:41:02.798Z,9.16
2024-02-11T16:43:31.267Z,9.20
2024-02-11T16:45:59.747Z,9.22
2024-02-11T16:48:28.698Z,9.22
2024-02-11T16:51:00.104Z,9.16
2024-02-11T16:53:29.432Z,9.16
2024-02-11T16:55:59.473Z,9.17
2024-02-11T16:58:28.642Z,9.21
2024-02-11T17:01:03.220Z,9.18
2024-02-11T17:03:31.915Z,9.16
2024-02-11T17:06:00.519Z,9.16
2024-02-11T17:08:29.411Z,9.15
2024-02-11T17:10:59.240Z,9.20
2024-02-11T17:13:29.277Z,9.17
2024-02-11T17:15:57.841Z,9.19
2024-02-11T17:18:28.102Z,9.15
2024-02-11T17:21:06.666Z,9.12
2024-02-11T17:23:41.184Z,9.03
2024-02-11T17:26:12.337Z,9.09
2024-02-11T17:28:42.546Z,8.99
2024-02-11T17:31:12.264Z,9.02
2024-02-11T17:33:41.164Z,9.09
2024-02-11T17:36:16.277Z,9.08
2024-02-11T17:41:15.391Z,9.10
2024-02-11T17:43:44.219Z,9.02
2024-02-11T17:46:14.548Z,9.04
2024-02-11T17:48:45.625Z,9.05
2024-02-11T17:51:17.089Z,9.08
2024-02-11T17:53:50.312Z,9.10
2024-02-11T17:56:21.113Z,9.03
2024-02-11T17:58:49.859Z,9.00
2024-02-11T18:01:19.287Z,9.01
2024-02-11T18:03:48.932Z,8.97
2024-02-11T18:06:17.953Z,8.97
2024-02-11T18:08:47.243Z,8.93
2024-02-11T18:11:16.343Z,9.02
2024-02-11T18:13:46.313Z,9.04
2024-02-11T18:16:14.971Z,9.09
2024-02-11T18:18:43.399Z,9.14
2024-02-11T18:21:12.152Z,9.05
2024-02-11T18:23:41.280Z,9.05
2024-02-11T18:26:13.227Z,8.99
2024-02-11T18:28:46.237Z,8.96
2024-02-11T18:31:17.128Z,8.92
2024-02-11T18:33:46.274Z,8.95
2024-02-11T18:36:14.900Z,8.97
2024-02-11T18:38:43.837Z,8.94
2024-02-11T18:41:14.320Z,8.99
2024-02-11T18:43:45.657Z,8.92
2024-02-11T18:46:18.922Z,8.89
2024-02-11T18:48:49.399Z,8.86
2024-02-11T18:51:17.957Z,8.82
2024-02-11T18:53:46.428Z,8.87
2024-02-11T18:56:15.553Z,8.82
2024-02-11T18:58:45.649Z,8.85
2024-02-11T19:01:14.140Z,8.83
2024-02-11T19:03:44.037Z,8.82
2024-02-11T19:06:12.604Z,8.83
2024-02-11T19:08:41.926Z,8.84
2024-02-11T19:11:11.935Z,8.83
2024-02-11T19:13:40.412Z,8.83
2024-02-11T19:16:09.581Z,8.82
2024-02-11T19:18:38.393Z,8.86
2024-02-11T19:21:08.400Z,8.82
2024-02-11T19:23:37.305Z,8.85
2024-02-11T19:26:06.263Z,8.86
2024-02-11T19:28:34.725Z,8.92
2024-02-11T19:31:03.428Z,8.87
2024-02-11T19:33:33.248Z,8.87
2024-02-11T19:36:02.297Z,8.89
2024-02-11T19:38:32.060Z,8.89
2024-02-11T19:41:00.567Z,8.87
2024-02-11T19:43:30.697Z,8.86
2024-02-11T19:45:59.922Z,8.87
2024-02-11T19:48:29.358Z,8.91
2024-02-11T19:50:58.482Z,8.86
2024-02-11T19:53:35.215Z,8.90
2024-02-11T19:56:10.354Z,8.88
2024-02-11T19:58:40.083Z,8.86
2024-02-11T20:01:09.345Z,8.90
2024-02-11T20:03:38.617Z,8.82
2024-02-11T20:06:10.157Z,8.81
2024-02-11T20:08:38.831Z,8.87
2024-02-11T20:11:10.270Z,8.88
2024-02-11T20:13:38.935Z,8.84
2024-02-11T20:16:13.975Z,8.87
2024-02-11T20:18:43.125Z,8.89
2024-02-11T20:21:13.171Z,8.90
2024-02-11T20:23:42.725Z,8.93
2024-02-11T20:26:17.140Z,8.93
2024-02-11T20:28:46.828Z,8.94
2024-02-11T20:31:16.159Z,8.93
2024-02-11T20:33:46.775Z,8.92
2024-02-11T20:36:15.545Z,8.97
2024-02-11T20:38:45.836Z,8.96
2024-02-11T20:41:20.573Z,8.95
2024-02-11T20:43:51.990Z,8.92
2024-02-11T20:46:20.807Z,8.95
2024-02-11T20:48:57.549Z,8.96
2024-02-11T20:51:32.206Z,8.93
2024-02-11T20:54:01.455Z,8.89
2024-02-11T20:56:32.319Z,8.91
2024-02-11T20:59:00.851Z,8.87
2024-02-11T21:01:30.340Z,8.89
2024-02-11T21:03:58.948Z,8.87
2024-02-11T21:06:27.478Z,8.84
2024-02-11T21:08:56.308Z,8.85
2024-02-11T21:11:26.782Z,8.82
2024-02-11T21:13:57.050Z,8.86
2024-02-11T21:16:25.897Z,8.87
2024-02-11T21:18:57.010Z,8.86
2024-02-11T21:21:26.240Z,8.86
2024-02-11T21:23:55.293Z,8.83
2024-02-11T21:26:23.896Z,8.82
2024-02-11T21:28:53.193Z,8.87
2024-02-11T21:31:24.032Z,8.85
2024-02-11T21:33:53.186Z,8.82
2024-02-11T21:36:21.803Z,8.85
2024-02-11T21:38:50.327Z,8.87
2024-02-11T21:41:19.268Z,8.83
2024-02-11T21:43:48.700Z,8.85
2024-02-11T21:46:19.267Z,8.85
2024-02-11T21:49:00.907Z,8.82
2024-02-11T21:51:35.200Z,8.77
2024-02-11T21:54:03.675Z,8.77
2024-02-11T21:56:32.192Z,8.82
2024-02-11T21:59:00.736Z,8.80
2024-02-11T22:01:29.778Z,8.82
2024-02-11T22:03:59.705Z,8.81
2024-02-11T22:06:28.296Z,8.79
2024-02-11T22:08:56.763Z,8.72
2024-02-11T22:11:25.276Z,8.75
2024-02-11T22:13:54.224Z,8.74
2024-02-11T22:16:22.678Z,8.75
2024-02-11T22:18:52.824Z,8.79
2024-02-11T22:21:23.144Z,8.77
2024-02-11T22:23:51.576Z,8.79
2024-02-11T22:26:20.100Z,8.80
2024-02-11T22:28:48.685Z,8.80
2024-02-11T22:31:17.264Z,8.82
2024-02-11T22:33:46.171Z,8.79
2024-02-11T22:36:20.261Z,8.77
2024-02-11T22:38:50.198Z,8.72
2024-02-11T22:41:18.794Z,8.75
2024-02-11T22:43:47.552Z,8.77
2024-02-11T22:46:16.283Z,8.73
2024-02-11T22:48:45.090Z,8.75
2024-02-11T22:51:14.391Z,8.77
2024-02-11T22:53:42.909Z,8.75
2024-02-11T22:56:13.081Z,8.78
2024-02-11T22:58:41.517Z,8.78
2024-02-11T23:01:09.977Z,8.77
2024-02-11T23:03:38.415Z,8.71
2024-02-11T23:06:07.599Z,8.78
2024-02-11T23:08:38.635Z,8.72
2024-02-11T23:11:08.199Z,8.75
2024-02-11T23:13:39.403Z,8.78
2024-02-11T23:16:11.200Z,8.75
2024-02-11T23:18:39.806Z,8.76
2024-02-11T23:21:09.141Z,8.76
2024-02-11T23:23:38.254Z,8.76
2024-02-11T23:26:07.386Z,8.77
2024-02-11T23:28:37.192Z,8.80
2024-02-11T23:31:07.931Z,8.82
2024-02-11T23:33:36.943Z,8.85
2024-02-11T23:36:08.476Z,8.86
2024-02-11T23:38:38.355Z,8.81
2024-02-11T23:41:07.240Z,8.82
2024-02-11T23:43:36.967Z,8.80
2024-02-11T23:46:10.918Z,8.77
2024-02-11T23:48:41.988Z,8.78
2024-02-11T23:51:10.473Z,8.77
2024-02-11T23:53:39.426Z,8.72
2024-02-11T23:56:08.632Z,8.71
2024-02-11T23:58:39.948Z,8.70
